Terminal Aerodrome Forecast
Issued by NWS

Home | Current Version | Previous Version | Text Only | Print | Product List | Glossary On
Versions: 1 2 3 4 5 6 7 8 9 10 11 12 13 14 15 16 17 18 19 20 21
653
FTUS43 KICT 221731
TAFCNU
TAF
KCNU 221731Z 2218/2318 02017G22KT P6SM SCT009 BKN025
      TEMPO 2218/2221 BKN008
     FM222100 02013KT P6SM SCT025 SCT080
     FM230100 02007KT P6SM SCT250
     FM231400 07006KT P6SM SKC=

USA.gov is the U.S. government's official web portal to all federal, state and local government web resources and services.